sensor_id;sensor_type;location;lat;lon;timestamp;pressure;altitude;pressure_sealevel;temperature;humidity
59435;BME280;45241;49.768;8.636;2023-05-24T00:01:30;100671.44;;;14.62;71.32
59435;BME280;45241;49.768;8.636;2023-05-24T00:03:55;100674.13;;;14.49;71.05
59435;BME280;45241;49.768;8.636;2023-05-24T00:06:25;100675.38;;;14.47;71.46
59435;BME280;45241;49.768;8.636;2023-05-24T00:08:52;100673.75;;;14.39;72.27
59435;BME280;45241;49.768;8.636;2023-05-24T00:11:17;100675.16;;;14.35;72.33
59435;BME280;45241;49.768;8.636;2023-05-24T00:13:43;100680.56;;;14.35;73.16
59435;BME280;45241;49.768;8.636;2023-05-24T00:16:08;100678.69;;;14.29;73.71
59435;BME280;45241;49.768;8.636;2023-05-24T00:18:33;100676.56;;;14.18;74.42
59435;BME280;45241;49.768;8.636;2023-05-24T00:20:59;100673.09;;;14.30;74.71
59435;BME280;45241;49.768;8.636;2023-05-24T00:23:24;100677.81;;;14.22;74.48
59435;BME280;45241;49.768;8.636;2023-05-24T00:25:53;100666.44;;;14.33;74.54
59435;BME280;45241;49.768;8.636;2023-05-24T00:28:18;100667.84;;;14.16;73.90
59435;BME280;45241;49.768;8.636;2023-05-24T00:30:44;100655.56;;;13.93;74.34
59435;BME280;45241;49.768;8.636;2023-05-24T00:33:09;100653.91;;;13.99;74.32
59435;BME280;45241;49.768;8.636;2023-05-24T00:35:34;100652.22;;;13.98;74.25
59435;BME280;45241;49.768;8.636;2023-05-24T00:38:00;100652.88;;;14.06;74.35
59435;BME280;45241;49.768;8.636;2023-05-24T00:40:26;100648.91;;;13.96;73.85
59435;BME280;45241;49.768;8.636;2023-05-24T00:42:51;100650.53;;;13.77;74.15
59435;BME280;45241;49.768;8.636;2023-05-24T00:45:16;100649.13;;;13.94;73.64
59435;BME280;45241;49.768;8.636;2023-05-24T00:47:42;100641.38;;;13.65;75.46
59435;BME280;45241;49.768;8.636;2023-05-24T00:50:10;100642.28;;;13.44;75.52
59435;BME280;45241;49.768;8.636;2023-05-24T00:52:39;100647.03;;;13.35;74.50
59435;BME280;45241;49.768;8.636;2023-05-24T00:55:06;100644.97;;;13.37;74.69
59435;BME280;45241;49.768;8.636;2023-05-24T00:57:32;100644.06;;;13.65;74.04
59435;BME280;45241;49.768;8.636;2023-05-24T00:59:58;100644.06;;;13.65;72.89
59435;BME280;45241;49.768;8.636;2023-05-24T01:02:24;100643.78;;;13.12;74.84
59435;BME280;45241;49.768;8.636;2023-05-24T01:04:49;100643.84;;;13.66;73.37
59435;BME280;45241;49.768;8.636;2023-05-24T01:07:27;100655.38;;;13.47;73.24
59435;BME280;45241;49.768;8.636;2023-05-24T01:10:02;100658.78;;;13.21;73.81
59435;BME280;45241;49.768;8.636;2023-05-24T01:12:37;100653.47;;;13.06;75.35
59435;BME280;45241;49.768;8.636;2023-05-24T01:15:12;100660.50;;;13.07;75.79
59435;BME280;45241;49.768;8.636;2023-05-24T01:17:52;100664.19;;;13.28;74.94
59435;BME280;45241;49.768;8.636;2023-05-24T01:20:19;100662.66;;;13.18;74.25
59435;BME280;45241;49.768;8.636;2023-05-24T01:25:53;100662.22;;;12.87;76.10
59435;BME280;45241;49.768;8.636;2023-05-24T01:28:26;100660.75;;;12.84;76.19
59435;BME280;45241;49.768;8.636;2023-05-24T01:30:52;100658.66;;;13.08;76.05
59435;BME280;45241;49.768;8.636;2023-05-24T01:33:17;100658.53;;;12.67;77.12
59435;BME280;45241;49.768;8.636;2023-05-24T01:35:43;100663.97;;;12.73;78.43
59435;BME280;45241;49.768;8.636;2023-05-24T01:38:09;100670.53;;;12.64;77.06
59435;BME280;45241;49.768;8.636;2023-05-24T01:40:39;100666.78;;;13.14;75.81
59435;BME280;45241;49.768;8.636;2023-05-24T01:51:06;100660.88;;;12.98;77.23
59435;BME280;45241;49.768;8.636;2023-05-24T01:53:33;100660.38;;;12.87;77.17
59435;BME280;45241;49.768;8.636;2023-05-24T01:56:04;100658.09;;;12.42;78.75
59435;BME280;45241;49.768;8.636;2023-05-24T01:58:31;100662.28;;;12.44;78.38
59435;BME280;45241;49.768;8.636;2023-05-24T02:00:57;100659.47;;;12.31;79.87
59435;BME280;45241;49.768;8.636;2023-05-24T02:03:23;100663.09;;;12.66;77.21
59435;BME280;45241;49.768;8.636;2023-05-24T02:05:48;100666.66;;;12.45;78.47
59435;BME280;45241;49.768;8.636;2023-05-24T02:08:14;100661.47;;;12.93;76.49
59435;BME280;45241;49.768;8.636;2023-05-24T02:10:39;100667.59;;;12.38;79.11
59435;BME280;45241;49.768;8.636;2023-05-24T02:13:06;100671.88;;;12.53;77.21
59435;BME280;45241;49.768;8.636;2023-05-24T02:15:31;100680.75;;;12.75;77.13
59435;BME280;45241;49.768;8.636;2023-05-24T02:17:57;100676.41;;;12.74;75.51
59435;BME280;45241;49.768;8.636;2023-05-24T02:20:22;100671.75;;;12.61;75.97
59435;BME280;45241;49.768;8.636;2023-05-24T02:22:48;100677.97;;;12.41;76.26
59435;BME280;45241;49.768;8.636;2023-05-24T02:25:14;100677.06;;;12.55;75.94
59435;BME280;45241;49.768;8.636;2023-05-24T02:27:39;100673.84;;;12.66;76.64
59435;BME280;45241;49.768;8.636;2023-05-24T02:30:06;100668.34;;;12.53;77.25
59435;BME280;45241;49.768;8.636;2023-05-24T02:32:32;100666.25;;;12.48;76.93
59435;BME280;45241;49.768;8.636;2023-05-24T02:34:58;100668.34;;;12.53;76.50
59435;BME280;45241;49.768;8.636;2023-05-24T02:37:26;100668.09;;;12.26;78.01
59435;BME280;45241;49.768;8.636;2023-05-24T02:39:51;100667.59;;;12.38;76.93
59435;BME280;45241;49.768;8.636;2023-05-24T02:42:17;100668.38;;;12.31;76.76
59435;BME280;45241;49.768;8.636;2023-05-24T02:44:42;100671.88;;;12.81;76.19
59435;BME280;45241;49.768;8.636;2023-05-24T02:47:11;100677.63;;;12.72;75.77
59435;BME280;45241;49.768;8.636;2023-05-24T02:49:37;100677.16;;;12.68;76.26
59435;BME280;45241;49.768;8.636;2023-05-24T02:52:02;100676.56;;;12.45;76.99
59435;BME280;45241;49.768;8.636;2023-05-24T02:54:27;100675.19;;;12.77;75.58
59435;BME280;45241;49.768;8.636;2023-05-24T02:56:53;100671.16;;;12.66;76.12
59435;BME280;45241;49.768;8.636;2023-05-24T02:59:20;100675.13;;;12.91;74.59
59435;BME280;45241;49.768;8.636;2023-05-24T03:01:46;100678.41;;;12.23;76.49
59435;BME280;45241;49.768;8.636;2023-05-24T03:04:11;100672.97;;;12.59;76.17
59435;BME280;45241;49.768;8.636;2023-05-24T03:06:36;100675.97;;;12.49;74.70
59435;BME280;45241;49.768;8.636;2023-05-24T03:09:02;100671.31;;;12.58;75.36
59435;BME280;45241;49.768;8.636;2023-05-24T03:11:27;100679.03;;;12.68;74.50
59435;BME280;45241;49.768;8.636;2023-05-24T03:13:52;100681.28;;;12.21;74.83
59435;BME280;45241;49.768;8.636;2023-05-24T03:16:18;100673.84;;;12.66;74.48
59435;BME280;45241;49.768;8.636;2023-05-24T03:18:43;100674.25;;;12.63;73.69
59435;BME280;45241;49.768;8.636;2023-05-24T03:21:09;100672.53;;;12.34;75.19
59435;BME280;45241;49.768;8.636;2023-05-24T03:23:34;100662.81;;;12.33;75.54
59435;BME280;45241;49.768;8.636;2023-05-24T03:26:00;100675.63;;;12.31;74.86
59435;BME280;45241;49.768;8.636;2023-05-24T03:28:25;100671.69;;;12.33;73.86
59435;BME280;45241;49.768;8.636;2023-05-24T03:30:51;100671.72;;;12.83;73.44
59435;BME280;45241;49.768;8.636;2023-05-24T03:33:17;100664.09;;;12.86;73.36
59435;BME280;45241;49.768;8.636;2023-05-24T03:35:42;100670.38;;;12.72;74.36
59435;BME280;45241;49.768;8.636;2023-05-24T03:38:07;100663.16;;;12.73;73.66
59435;BME280;45241;49.768;8.636;2023-05-24T03:40:32;100665.16;;;12.43;74.14
59435;BME280;45241;49.768;8.636;2023-05-24T03:42:58;100666.88;;;12.72;73.13
59435;BME280;45241;49.768;8.636;2023-05-24T03:45:24;100671.81;;;12.47;73.40
59435;BME280;45241;49.768;8.636;2023-05-24T03:47:49;100664.06;;;12.37;74.93
59435;BME280;45241;49.768;8.636;2023-05-24T03:50:15;100675.53;;;12.24;74.88
59435;BME280;45241;49.768;8.636;2023-05-24T03:52:41;100675.28;;;12.19;74.67
59435;BME280;45241;49.768;8.636;2023-05-24T03:55:06;100672.91;;;12.10;75.88
59435;BME280;45241;49.768;8.636;2023-05-24T03:57:32;100676.41;;;12.10;76.12
59435;BME280;45241;49.768;8.636;2023-05-24T03:59:57;100674.13;;;12.07;76.35
59435;BME280;45241;49.768;8.636;2023-05-24T04:02:24;100679.53;;;12.14;76.52
59435;BME280;45241;49.768;8.636;2023-05-24T04:04:49;100675.06;;;12.42;75.29
59435;BME280;45241;49.768;8.636;2023-05-24T04:07:15;100669.78;;;12.49;72.54
59435;BME280;45241;49.768;8.636;2023-05-24T04:09:41;100674.81;;;12.16;75.19
59435;BME280;45241;49.768;8.636;2023-05-24T04:12:06;100683.53;;;12.39;73.85
59435;BME280;45241;49.768;8.636;2023-05-24T04:14:31;100684.31;;;12.33;74.41
59435;BME280;45241;49.768;8.636;2023-05-24T04:16:57;100680.78;;;12.32;73.88
59435;BME280;45241;49.768;8.636;2023-05-24T04:19:22;100682.66;;;12.32;74.11
59435;BME280;45241;49.768;8.636;2023-05-24T04:21:48;100685.59;;;12.01;74.88
59435;BME280;45241;49.768;8.636;2023-05-24T04:24:13;100683.44;;;12.11;75.01
59435;BME280;45241;49.768;8.636;2023-05-24T04:26:39;100688.50;;;11.99;76.78
59435;BME280;45241;49.768;8.636;2023-05-24T04:29:04;100680.63;;;11.98;75.73
59435;BME280;45241;49.768;8.636;2023-05-24T04:31:29;100684.03;;;12.28;75.20
59435;BME280;45241;49.768;8.636;2023-05-24T04:33:57;100681.28;;;12.21;75.84
59435;BME280;45241;49.768;8.636;2023-05-24T04:36:23;100680.19;;;11.94;76.56
59435;BME280;45241;49.768;8.636;2023-05-24T04:38:49;100681.53;;;12.26;75.86
59435;BME280;45241;49.768;8.636;2023-05-24T04:41:18;100678.22;;;12.24;75.87
59435;BME280;45241;49.768;8.636;2023-05-24T04:43:43;100688.34;;;12.44;74.94
59435;BME280;45241;49.768;8.636;2023-05-24T04:46:09;100684.88;;;12.07;75.48
59435;BME280;45241;49.768;8.636;2023-05-24T04:48:34;100684.06;;;11.92;75.79
59435;BME280;45241;49.768;8.636;2023-05-24T04:51:00;100687.97;;;12.47;74.88
59435;BME280;45241;49.768;8.636;2023-05-24T04:53:25;100692.09;;;12.28;75.90
59435;BME280;45241;49.768;8.636;2023-05-24T04:55:51;100685.69;;;12.29;75.73
59435;BME280;45241;49.768;8.636;2023-05-24T04:58:17;100691.78;;;12.38;75.13
59435;BME280;45241;49.768;8.636;2023-05-24T05:00:42;100695.91;;;12.33;75.11
59435;BME280;45241;49.768;8.636;2023-05-24T05:03:08;100699.81;;;12.16;77.47
59435;BME280;45241;49.768;8.636;2023-05-24T05:05:34;100702.63;;;12.44;76.44
59435;BME280;45241;49.768;8.636;2023-05-24T05:08:00;100705.66;;;12.41;77.21
59435;BME280;45241;49.768;8.636;2023-05-24T05:10:25;100716.47;;;12.26;76.75
59435;BME280;45241;49.768;8.636;2023-05-24T05:12:51;100714.91;;;12.32;76.59
59435;BME280;45241;49.768;8.636;2023-05-24T05:15:16;100716.09;;;12.08;77.09
59435;BME280;45241;49.768;8.636;2023-05-24T05:17:42;100717.94;;;12.08;77.55
59435;BME280;45241;49.768;8.636;2023-05-24T05:20:07;100724.16;;;12.29;77.29
59435;BME280;45241;49.768;8.636;2023-05-24T05:22:33;100723.28;;;12.22;77.03
59435;BME280;45241;49.768;8.636;2023-05-24T05:24:59;100723.66;;;12.41;75.93
59435;BME280;45241;49.768;8.636;2023-05-24T05:27:24;100734.44;;;12.62;74.86
59435;BME280;45241;49.768;8.636;2023-05-24T05:29:50;100727.41;;;12.61;74.47
59435;BME280;45241;49.768;8.636;2023-05-24T05:32:15;100731.03;;;12.32;75.21
59435;BME280;45241;49.768;8.636;2023-05-24T05:34:40;100727.78;;;12.37;76.20
59435;BME280;45241;49.768;8.636;2023-05-24T05:37:06;100734.91;;;12.29;74.59
59435;BME280;45241;49.768;8.636;2023-05-24T05:39:31;100731.06;;;12.81;73.58
59435;BME280;45241;49.768;8.636;2023-05-24T05:41:57;100730.84;;;12.98;74.17
59435;BME280;45241;49.768;8.636;2023-05-24T05:44:22;100725.41;;;12.91;74.18
59435;BME280;45241;49.768;8.636;2023-05-24T05:46:48;100735.09;;;12.28;73.62
59435;BME280;45241;49.768;8.636;2023-05-24T05:49:14;100736.16;;;12.48;74.20
59435;BME280;45241;49.768;8.636;2023-05-24T05:51:40;100736.22;;;12.76;73.78
59435;BME280;45241;49.768;8.636;2023-05-24T05:54:05;100725.50;;;13.04;71.46
59435;BME280;45241;49.768;8.636;2023-05-24T05:56:32;100739.50;;;12.50;72.61
59435;BME280;45241;49.768;8.636;2023-05-24T05:58:59;100736.97;;;12.27;72.24
59435;BME280;45241;49.768;8.636;2023-05-24T06:01:25;100742.75;;;12.67;71.72
59435;BME280;45241;49.768;8.636;2023-05-24T06:03:50;100733.22;;;12.86;70.40
59435;BME280;45241;49.768;8.636;2023-05-24T06:06:16;100733.47;;;12.91;70.91
59435;BME280;45241;49.768;8.636;2023-05-24T06:08:41;100739.38;;;13.01;70.77
59435;BME280;45241;49.768;8.636;2023-05-24T06:11:06;100736.81;;;12.93;70.01
59435;BME280;45241;49.768;8.636;2023-05-24T06:13:32;100739.97;;;12.97;68.84
59435;BME280;45241;49.768;8.636;2023-05-24T06:15:57;100745.16;;;12.98;69.09
59435;BME280;45241;49.768;8.636;2023-05-24T06:18:23;100738.22;;;12.89;68.64
59435;BME280;45241;49.768;8.636;2023-05-24T06:20:49;100746.38;;;12.81;70.38
59435;BME280;45241;49.768;8.636;2023-05-24T06:23:15;100741.63;;;12.98;71.72
59435;BME280;45241;49.768;8.636;2023-05-24T06:25:40;100741.31;;;13.14;70.38
59435;BME280;45241;49.768;8.636;2023-05-24T06:28:07;100741.66;;;13.04;70.16
59435;BME280;45241;49.768;8.636;2023-05-24T06:30:33;100746.09;;;13.12;69.49
59435;BME280;45241;49.768;8.636;2023-05-24T06:32:58;100741.44;;;13.34;70.63
59435;BME280;45241;49.768;8.636;2023-05-24T06:35:24;100751.44;;;13.40;70.53
59435;BME280;45241;49.768;8.636;2023-05-24T06:37:50;100747.53;;;13.42;70.61
59435;BME280;45241;49.768;8.636;2023-05-24T06:40:15;100747.22;;;13.24;70.68
59435;BME280;45241;49.768;8.636;2023-05-24T06:42:40;100749.91;;;13.59;69.56
59435;BME280;45241;49.768;8.636;2023-05-24T06:45:06;100756.09;;;13.53;68.73
59435;BME280;45241;49.768;8.636;2023-05-24T06:47:32;100748.84;;;13.53;68.32
59435;BME280;45241;49.768;8.636;2023-05-24T06:49:57;100764.97;;;13.18;68.47
59435;BME280;45241;49.768;8.636;2023-05-24T06:52:23;100757.66;;;13.40;68.95
59435;BME280;45241;49.768;8.636;2023-05-24T06:54:48;100751.47;;;13.74;68.04
59435;BME280;45241;49.768;8.636;2023-05-24T06:57:14;100760.38;;;13.40;68.55
59435;BME280;45241;49.768;8.636;2023-05-24T06:59:39;100755.69;;;13.90;69.34
59435;BME280;45241;49.768;8.636;2023-05-24T07:02:05;100760.66;;;13.87;68.29
59435;BME280;45241;49.768;8.636;2023-05-24T07:04:30;100761.50;;;13.94;66.72
59435;BME280;45241;49.768;8.636;2023-05-24T07:06:56;100759.88;;;13.99;66.73
59435;BME280;45241;49.768;8.636;2023-05-24T07:09:22;100761.06;;;13.90;67.56
59435;BME280;45241;49.768;8.636;2023-05-24T07:11:48;100752.56;;;13.93;66.80
59435;BME280;45241;49.768;8.636;2023-05-24T07:14:13;100752.31;;;13.82;67.14
59435;BME280;45241;49.768;8.636;2023-05-24T07:16:38;100749.06;;;13.58;65.84
59435;BME280;45241;49.768;8.636;2023-05-24T07:19:04;100767.56;;;14.02;67.16
59435;BME280;45241;49.768;8.636;2023-05-24T07:21:29;100764.13;;;13.80;66.88
59435;BME280;45241;49.768;8.636;2023-05-24T07:23:54;100755.91;;;13.95;66.47
59435;BME280;45241;49.768;8.636;2023-05-24T07:26:20;100753.88;;;14.04;65.18
59435;BME280;45241;49.768;8.636;2023-05-24T07:28:46;100758.09;;;14.26;64.83
59435;BME280;45241;49.768;8.636;2023-05-24T07:31:11;100754.44;;;14.47;64.85
59435;BME280;45241;49.768;8.636;2023-05-24T07:33:36;100759.47;;;14.70;64.79
59435;BME280;45241;49.768;8.636;2023-05-24T07:36:04;100751.59;;;14.68;62.27
59435;BME280;45241;49.768;8.636;2023-05-24T07:38:30;100753.94;;;14.24;63.75
59435;BME280;45241;49.768;8.636;2023-05-24T07:40:58;100767.59;;;14.16;63.43
59435;BME280;45241;49.768;8.636;2023-05-24T07:43:23;100762.50;;;14.34;61.49
59435;BME280;45241;49.768;8.636;2023-05-24T07:45:49;100757.94;;;14.34;61.69
59435;BME280;45241;49.768;8.636;2023-05-24T07:48:14;100759.91;;;14.80;63.83
59435;BME280;45241;49.768;8.636;2023-05-24T07:50:40;100767.38;;;14.78;63.71
59435;BME280;45241;49.768;8.636;2023-05-24T07:53:05;100764.47;;;14.86;61.72
59435;BME280;45241;49.768;8.636;2023-05-24T07:55:31;100769.88;;;14.80;61.62
59435;BME280;45241;49.768;8.636;2023-05-24T07:57:56;100781.47;;;14.74;61.44
59435;BME280;45241;49.768;8.636;2023-05-24T08:00:22;100778.81;;;15.13;59.27
59435;BME280;45241;49.768;8.636;2023-05-24T08:02:47;100771.75;;;15.25;58.93
59435;BME280;45241;49.768;8.636;2023-05-24T08:05:13;100779.66;;;15.07;60.62
59435;BME280;45241;49.768;8.636;2023-05-24T08:07:39;100778.63;;;15.08;60.23
59435;BME280;45241;49.768;8.636;2023-05-24T08:10:06;100771.78;;;15.19;60.56
59435;BME280;45241;49.768;8.636;2023-05-24T08:12:31;100775.28;;;15.13;59.88
59435;BME280;45241;49.768;8.636;2023-05-24T08:14:57;100789.84;;;15.18;58.96
59435;BME280;45241;49.768;8.636;2023-05-24T08:17:22;100788.13;;;15.50;58.24
59435;BME280;45241;49.768;8.636;2023-05-24T08:19:48;100786.50;;;15.63;56.22
59435;BME280;45241;49.768;8.636;2023-05-24T08:22:13;100785.66;;;15.36;56.89
59435;BME280;45241;49.768;8.636;2023-05-24T08:24:39;100786.03;;;15.79;57.05
59435;BME280;45241;49.768;8.636;2023-05-24T08:27:05;100788.97;;;15.71;59.20
59435;BME280;45241;49.768;8.636;2023-05-24T08:29:31;100781.47;;;15.53;57.93
59435;BME280;45241;49.768;8.636;2023-05-24T08:31:56;100789.00;;;15.38;57.13
59435;BME280;45241;49.768;8.636;2023-05-24T08:34:22;100782.34;;;15.34;56.66
59435;BME280;45241;49.768;8.636;2023-05-24T08:36:47;100782.13;;;15.42;57.80
59435;BME280;45241;49.768;8.636;2023-05-24T08:39:13;100785.88;;;15.61;57.93
59435;BME280;45241;49.768;8.636;2023-05-24T08:41:39;100786.88;;;15.79;58.20
59435;BME280;45241;49.768;8.636;2023-05-24T08:44:05;100785.19;;;15.78;58.49
59435;BME280;45241;49.768;8.636;2023-05-24T08:46:35;100781.00;;;15.96;57.21
59435;BME280;45241;49.768;8.636;2023-05-24T08:49:01;100783.94;;;15.81;56.34
59435;BME280;45241;49.768;8.636;2023-05-24T08:51:28;100788.16;;;15.70;56.95
59435;BME280;45241;49.768;8.636;2023-05-24T08:53:56;100786.09;;;16.24;56.10
59435;BME280;45241;49.768;8.636;2023-05-24T08:56:24;100777.63;;;16.52;55.93
59435;BME280;45241;49.768;8.636;2023-05-24T08:58:50;100782.81;;;16.60;55.27
59435;BME280;45241;49.768;8.636;2023-05-24T09:01:16;100782.50;;;15.85;55.55
59435;BME280;45241;49.768;8.636;2023-05-24T09:03:42;100778.50;;;16.01;57.24
59435;BME280;45241;49.768;8.636;2023-05-24T09:06:09;100783.28;;;16.43;56.13
59435;BME280;45241;49.768;8.636;2023-05-24T09:08:36;100780.09;;;16.60;54.55
59435;BME280;45241;49.768;8.636;2023-05-24T09:11:04;100787.41;;;16.08;55.18
59435;BME280;45241;49.768;8.636;2023-05-24T09:13:30;100780.50;;;16.19;55.04
59435;BME280;45241;49.768;8.636;2023-05-24T09:15:57;100796.41;;;15.95;54.69
59435;BME280;45241;49.768;8.636;2023-05-24T09:18:23;100799.59;;;15.19;55.22
59435;BME280;45241;49.768;8.636;2023-05-24T09:20:48;100797.50;;;15.68;56.89
59435;BME280;45241;49.768;8.636;2023-05-24T09:23:14;100800.19;;;15.41;57.28
59435;BME280;45241;49.768;8.636;2023-05-24T09:25:44;100793.97;;;15.27;56.73
59435;BME280;45241;49.768;8.636;2023-05-24T09:28:12;100795.22;;;15.45;56.04
59435;BME280;45241;49.768;8.636;2023-05-24T09:30:42;100781.19;;;16.01;56.37
59435;BME280;45241;49.768;8.636;2023-05-24T09:33:07;100789.63;;;16.24;54.83
59435;BME280;45241;49.768;8.636;2023-05-24T09:35:32;100786.44;;;16.79;53.64
59435;BME280;45241;49.768;8.636;2023-05-24T09:37:59;100789.19;;;16.27;54.98
59435;BME280;45241;49.768;8.636;2023-05-24T09:40:25;100784.53;;;16.48;54.33
59435;BME280;45241;49.768;8.636;2023-05-24T09:43:07;100791.28;;;16.70;54.22
59435;BME280;45241;49.768;8.636;2023-05-24T09:45:46;100782.66;;;16.86;52.51
59435;BME280;45241;49.768;8.636;2023-05-24T09:48:14;100783.22;;;17.20;54.75
59435;BME280;45241;49.768;8.636;2023-05-24T09:50:40;100783.31;;;17.07;52.62
59435;BME280;45241;49.768;8.636;2023-05-24T09:53:06;100773.28;;;16.82;54.03
59435;BME280;45241;49.768;8.636;2023-05-24T09:55:35;100775.28;;;17.25;53.77
59435;BME280;45241;49.768;8.636;2023-05-24T09:58:05;100785.06;;;17.26;53.21
59435;BME280;45241;49.768;8.636;2023-05-24T10:00:40;100774.31;;;17.81;52.45
59435;BME280;45241;49.768;8.636;2023-05-24T10:03:07;100772.66;;;17.98;52.19
59435;BME280;45241;49.768;8.636;2023-05-24T10:05:34;100766.31;;;17.86;53.54
59435;BME280;45241;49.768;8.636;2023-05-24T10:08:00;100769.94;;;17.98;52.88
59435;BME280;45241;49.768;8.636;2023-05-24T10:10:27;100773.41;;;18.05;52.87
59435;BME280;45241;49.768;8.636;2023-05-24T10:12:54;100774.47;;;17.86;51.56
59435;BME280;45241;49.768;8.636;2023-05-24T10:15:20;100760.53;;;17.82;51.79
59435;BME280;45241;49.768;8.636;2023-05-24T10:17:46;100768.38;;;17.90;49.24
59435;BME280;45241;49.768;8.636;2023-05-24T10:20:11;100761.00;;;17.73;50.33
59435;BME280;45241;49.768;8.636;2023-05-24T10:22:41;100758.06;;;17.81;49.76
59435;BME280;45241;49.768;8.636;2023-05-24T10:25:09;100765.38;;;17.55;49.88
59435;BME280;45241;49.768;8.636;2023-05-24T10:27:40;100764.22;;;17.26;49.89
59435;BME280;45241;49.768;8.636;2023-05-24T10:30:14;100752.53;;;17.87;51.20
59435;BME280;45241;49.768;8.636;2023-05-24T10:32:43;100758.91;;;17.75;51.43
59435;BME280;45241;49.768;8.636;2023-05-24T10:35:10;100753.31;;;18.25;50.65
59435;BME280;45241;49.768;8.636;2023-05-24T10:37:39;100747.50;;;18.39;49.77
59435;BME280;45241;49.768;8.636;2023-05-24T10:40:06;100756.94;;;18.37;48.68
59435;BME280;45241;49.768;8.636;2023-05-24T10:42:34;100755.16;;;18.72;49.32
59435;BME280;45241;49.768;8.636;2023-05-24T10:45:28;100757.22;;;18.29;48.80
59435;BME280;45241;49.768;8.636;2023-05-24T10:47:56;100753.00;;;19.04;48.73
59435;BME280;45241;49.768;8.636;2023-05-24T10:50:22;100755.44;;;18.53;48.25
59435;BME280;45241;49.768;8.636;2023-05-24T10:52:48;100745.38;;;18.71;47.89
59435;BME280;45241;49.768;8.636;2023-05-24T10:55:14;100735.41;;;18.65;47.66
59435;BME280;45241;49.768;8.636;2023-05-24T10:57:39;100734.31;;;18.55;47.96
59435;BME280;45241;49.768;8.636;2023-05-24T11:02:53;100736.63;;;19.34;48.71
59435;BME280;45241;49.768;8.636;2023-05-24T11:05:23;100734.72;;;19.23;45.83
59435;BME280;45241;49.768;8.636;2023-05-24T11:07:48;100742.50;;;19.08;46.49
59435;BME280;45241;49.768;8.636;2023-05-24T11:10:15;100735.63;;;18.82;46.61
59435;BME280;45241;49.768;8.636;2023-05-24T11:12:41;100729.53;;;19.33;47.22
59435;BME280;45241;49.768;8.636;2023-05-24T11:15:10;100735.19;;;19.20;47.74
59435;BME280;45241;49.768;8.636;2023-05-24T11:18:15;100732.34;;;19.62;46.25
59435;BME280;45241;49.768;8.636;2023-05-24T11:20:43;100723.63;;;19.36;47.69
59435;BME280;45241;49.768;8.636;2023-05-24T11:23:09;100725.13;;;19.44;48.30
59435;BME280;45241;49.768;8.636;2023-05-24T11:25:36;100718.34;;;19.82;45.95
59435;BME280;45241;49.768;8.636;2023-05-24T11:28:02;100716.84;;;19.04;45.92
59435;BME280;45241;49.768;8.636;2023-05-24T11:30:31;100716.63;;;19.05;47.41
59435;BME280;45241;49.768;8.636;2023-05-24T11:32:57;100715.78;;;19.63;46.54
59435;BME280;45241;49.768;8.636;2023-05-24T11:35:24;100717.47;;;20.33;44.89
59435;BME280;45241;49.768;8.636;2023-05-24T11:37:52;100719.03;;;20.29;44.91
59435;BME280;45241;49.768;8.636;2023-05-24T11:40:18;100711.91;;;19.59;44.82
59435;BME280;45241;49.768;8.636;2023-05-24T11:42:44;100719.03;;;20.01;45.01
59435;BME280;45241;49.768;8.636;2023-05-24T11:45:11;100705.84;;;19.46;44.26
59435;BME280;45241;49.768;8.636;2023-05-24T11:47:38;100699.75;;;18.62;46.16
59435;BME280;45241;49.768;8.636;2023-05-24T11:50:04;100694.84;;;19.76;46.54
59435;BME280;45241;49.768;8.636;2023-05-24T11:52:30;100710.06;;;19.88;44.74
59435;BME280;45241;49.768;8.636;2023-05-24T11:54:56;100710.03;;;19.25;45.50
59435;BME280;45241;49.768;8.636;2023-05-24T11:57:28;100699.22;;;19.65;47.58
59435;BME280;45241;49.768;8.636;2023-05-24T11:59:54;100701.34;;;19.86;45.62
59435;BME280;45241;49.768;8.636;2023-05-24T12:02:22;100697.94;;;20.08;46.05
59435;BME280;45241;49.768;8.636;2023-05-24T12:04:47;100699.47;;;19.75;46.26
59435;BME280;45241;49.768;8.636;2023-05-24T12:07:13;100694.63;;;19.30;45.09
59435;BME280;45241;49.768;8.636;2023-05-24T12:09:39;100706.28;;;19.89;45.15
59435;BME280;45241;49.768;8.636;2023-05-24T12:12:05;100697.44;;;20.11;44.34
59435;BME280;45241;49.768;8.636;2023-05-24T12:14:32;100689.97;;;20.18;42.38
59435;BME280;45241;49.768;8.636;2023-05-24T12:16:58;100690.56;;;19.68;42.32
59435;BME280;45241;49.768;8.636;2023-05-24T12:19:29;100695.78;;;20.10;44.40
59435;BME280;45241;49.768;8.636;2023-05-24T12:21:57;100686.88;;;20.71;44.08
59435;BME280;45241;49.768;8.636;2023-05-24T12:24:24;100695.50;;;20.51;43.67
59435;BME280;45241;49.768;8.636;2023-05-24T12:26:50;100695.13;;;20.93;43.69
59435;BME280;45241;49.768;8.636;2023-05-24T12:29:16;100696.75;;;21.11;41.98
59435;BME280;45241;49.768;8.636;2023-05-24T12:31:51;100697.97;;;20.53;43.06
59435;BME280;45241;49.768;8.636;2023-05-24T12:34:18;100687.69;;;21.83;42.92
59435;BME280;45241;49.768;8.636;2023-05-24T12:36:44;100682.56;;;21.09;41.82
59435;BME280;45241;49.768;8.636;2023-05-24T12:39:20;100679.34;;;22.43;42.45
59435;BME280;45241;49.768;8.636;2023-05-24T12:41:50;100688.00;;;21.09;42.52
59435;BME280;45241;49.768;8.636;2023-05-24T12:44:16;100680.91;;;20.12;44.13
59435;BME280;45241;49.768;8.636;2023-05-24T12:46:43;100686.84;;;20.88;43.82
59435;BME280;45241;49.768;8.636;2023-05-24T12:49:09;100690.94;;;20.57;43.19
59435;BME280;45241;49.768;8.636;2023-05-24T12:51:34;100688.53;;;20.27;44.32
59435;BME280;45241;49.768;8.636;2023-05-24T12:54:00;100679.53;;;21.27;42.34
59435;BME280;45241;49.768;8.636;2023-05-24T12:56:28;100677.38;;;21.07;42.92
59435;BME280;45241;49.768;8.636;2023-05-24T12:58:54;100677.81;;;22.04;41.74
59435;BME280;45241;49.768;8.636;2023-05-24T13:01:19;100678.66;;;21.22;39.79